sensor_id;sensor_type;location;lat;lon;timestamp;P1;durP1;ratioP1;P2;durP2;ratioP2
20986;SDS011;10652;50.306;8.570;2024-03-02T00:02:27;5.90;;;4.70;;
20986;SDS011;10652;50.306;8.570;2024-03-02T00:06:29;7.18;;;5.00;;
20986;SDS011;10652;50.306;8.570;2024-03-02T00:10:35;5.88;;;5.05;;
20986;SDS011;10652;50.306;8.570;2024-03-02T00:14:41;6.57;;;4.80;;
20986;SDS011;10652;50.306;8.570;2024-03-02T00:18:43;6.20;;;5.35;;
20986;SDS011;10652;50.306;8.570;2024-03-02T00:22:46;8.50;;;5.72;;
20986;SDS011;10652;50.306;8.570;2024-03-02T00:26:52;7.28;;;5.57;;
20986;SDS011;10652;50.306;8.570;2024-03-02T00:30:57;7.85;;;6.30;;
20986;SDS011;10652;50.306;8.570;2024-03-02T00:35:15;7.18;;;5.97;;
20986;SDS011;10652;50.306;8.570;2024-03-02T00:39:17;8.90;;;6.72;;
20986;SDS011;10652;50.306;8.570;2024-03-02T00:47:49;10.48;;;7.80;;
20986;SDS011;10652;50.306;8.570;2024-03-02T00:51:51;18.23;;;14.63;;
20986;SDS011;10652;50.306;8.570;2024-03-02T00:55:56;10.05;;;8.30;;
20986;SDS011;10652;50.306;8.570;2024-03-02T00:59:58;8.77;;;7.28;;
20986;SDS011;10652;50.306;8.570;2024-03-02T01:04:00;9.45;;;7.38;;
20986;SDS011;10652;50.306;8.570;2024-03-02T01:08:03;9.60;;;7.28;;
20986;SDS011;10652;50.306;8.570;2024-03-02T01:12:05;11.05;;;8.98;;
20986;SDS011;10652;50.306;8.570;2024-03-02T01:16:08;10.13;;;8.07;;
20986;SDS011;10652;50.306;8.570;2024-03-02T01:20:10;13.43;;;11.45;;
20986;SDS011;10652;50.306;8.570;2024-03-02T01:24:12;10.57;;;8.13;;
20986;SDS011;10652;50.306;8.570;2024-03-02T01:28:15;10.57;;;8.07;;
20986;SDS011;10652;50.306;8.570;2024-03-02T01:32:17;12.43;;;8.95;;
20986;SDS011;10652;50.306;8.570;2024-03-02T01:36:19;12.05;;;8.35;;
20986;SDS011;10652;50.306;8.570;2024-03-02T01:40:21;11.25;;;8.93;;
20986;SDS011;10652;50.306;8.570;2024-03-02T01:44:25;11.65;;;9.43;;
20986;SDS011;10652;50.306;8.570;2024-03-02T01:48:27;13.18;;;9.52;;
20986;SDS011;10652;50.306;8.570;2024-03-02T01:52:29;12.45;;;9.50;;
20986;SDS011;10652;50.306;8.570;2024-03-02T01:56:31;12.48;;;9.57;;
20986;SDS011;10652;50.306;8.570;2024-03-02T02:00:34;13.23;;;9.55;;
20986;SDS011;10652;50.306;8.570;2024-03-02T02:04:36;24.42;;;15.75;;
20986;SDS011;10652;50.306;8.570;2024-03-02T02:08:38;17.30;;;11.00;;
20986;SDS011;10652;50.306;8.570;2024-03-02T02:12:40;13.07;;;10.00;;
20986;SDS011;10652;50.306;8.570;2024-03-02T02:16:42;13.02;;;9.43;;
20986;SDS011;10652;50.306;8.570;2024-03-02T02:20:44;12.77;;;9.32;;
20986;SDS011;10652;50.306;8.570;2024-03-02T02:24:46;14.32;;;9.77;;
20986;SDS011;10652;50.306;8.570;2024-03-02T02:28:48;14.52;;;10.02;;
20986;SDS011;10652;50.306;8.570;2024-03-02T02:32:51;12.32;;;9.18;;
20986;SDS011;10652;50.306;8.570;2024-03-02T02:36:53;13.07;;;9.60;;
20986;SDS011;10652;50.306;8.570;2024-03-02T02:40:56;12.88;;;9.95;;
20986;SDS011;10652;50.306;8.570;2024-03-02T02:44:58;13.65;;;10.07;;
20986;SDS011;10652;50.306;8.570;2024-03-02T02:49:00;14.27;;;10.50;;
20986;SDS011;10652;50.306;8.570;2024-03-02T02:53:03;13.40;;;10.18;;
20986;SDS011;10652;50.306;8.570;2024-03-02T02:57:05;14.43;;;10.38;;
20986;SDS011;10652;50.306;8.570;2024-03-02T03:01:07;13.95;;;10.45;;
20986;SDS011;10652;50.306;8.570;2024-03-02T03:05:10;14.73;;;11.40;;
20986;SDS011;10652;50.306;8.570;2024-03-02T03:09:13;17.77;;;11.98;;
20986;SDS011;10652;50.306;8.570;2024-03-02T03:13:15;16.00;;;11.68;;
20986;SDS011;10652;50.306;8.570;2024-03-02T03:17:18;17.40;;;12.00;;
20986;SDS011;10652;50.306;8.570;2024-03-02T03:21:20;15.23;;;11.50;;
20986;SDS011;10652;50.306;8.570;2024-03-02T03:25:22;18.33;;;12.27;;
20986;SDS011;10652;50.306;8.570;2024-03-02T03:29:24;16.60;;;12.35;;
20986;SDS011;10652;50.306;8.570;2024-03-02T03:33:26;19.77;;;13.55;;
20986;SDS011;10652;50.306;8.570;2024-03-02T03:37:28;18.73;;;13.50;;
20986;SDS011;10652;50.306;8.570;2024-03-02T03:41:35;18.80;;;12.98;;
20986;SDS011;10652;50.306;8.570;2024-03-02T03:45:37;18.70;;;13.07;;
20986;SDS011;10652;50.306;8.570;2024-03-02T03:49:39;18.55;;;13.05;;
20986;SDS011;10652;50.306;8.570;2024-03-02T03:53:41;18.75;;;13.15;;
20986;SDS011;10652;50.306;8.570;2024-03-02T03:57:43;20.55;;;13.90;;
20986;SDS011;10652;50.306;8.570;2024-03-02T04:01:45;19.75;;;14.90;;
20986;SDS011;10652;50.306;8.570;2024-03-02T04:05:47;18.30;;;13.35;;
20986;SDS011;10652;50.306;8.570;2024-03-02T04:09:49;17.25;;;12.77;;
20986;SDS011;10652;50.306;8.570;2024-03-02T04:13:52;18.23;;;13.80;;
20986;SDS011;10652;50.306;8.570;2024-03-02T04:17:57;20.08;;;14.10;;
20986;SDS011;10652;50.306;8.570;2024-03-02T04:22:00;19.98;;;14.25;;
20986;SDS011;10652;50.306;8.570;2024-03-02T04:26:13;19.90;;;14.75;;
20986;SDS011;10652;50.306;8.570;2024-03-02T04:30:16;18.38;;;13.63;;
20986;SDS011;10652;50.306;8.570;2024-03-02T04:34:18;18.73;;;13.52;;
20986;SDS011;10652;50.306;8.570;2024-03-02T04:38:21;19.85;;;14.15;;
20986;SDS011;10652;50.306;8.570;2024-03-02T04:42:23;21.45;;;14.60;;
20986;SDS011;10652;50.306;8.570;2024-03-02T04:46:26;19.38;;;13.52;;
20986;SDS011;10652;50.306;8.570;2024-03-02T04:50:28;18.17;;;13.20;;
20986;SDS011;10652;50.306;8.570;2024-03-02T04:54:31;18.05;;;12.80;;
20986;SDS011;10652;50.306;8.570;2024-03-02T04:58:33;17.67;;;12.52;;
20986;SDS011;10652;50.306;8.570;2024-03-02T05:02:35;17.45;;;12.65;;
20986;SDS011;10652;50.306;8.570;2024-03-02T05:06:40;18.63;;;12.43;;
20986;SDS011;10652;50.306;8.570;2024-03-02T05:10:43;16.80;;;12.30;;
20986;SDS011;10652;50.306;8.570;2024-03-02T05:14:45;18.38;;;11.95;;
20986;SDS011;10652;50.306;8.570;2024-03-02T05:18:47;16.20;;;11.77;;
20986;SDS011;10652;50.306;8.570;2024-03-02T05:22:50;17.05;;;12.63;;
20986;SDS011;10652;50.306;8.570;2024-03-02T05:26:52;17.00;;;12.10;;
20986;SDS011;10652;50.306;8.570;2024-03-02T05:30:54;18.33;;;13.02;;
20986;SDS011;10652;50.306;8.570;2024-03-02T05:34:57;20.88;;;14.10;;
20986;SDS011;10652;50.306;8.570;2024-03-02T05:38:59;21.27;;;14.45;;
20986;SDS011;10652;50.306;8.570;2024-03-02T05:43:01;19.42;;;14.23;;
20986;SDS011;10652;50.306;8.570;2024-03-02T05:47:03;19.83;;;13.68;;
20986;SDS011;10652;50.306;8.570;2024-03-02T05:51:06;17.60;;;13.70;;
20986;SDS011;10652;50.306;8.570;2024-03-02T05:55:08;22.58;;;15.30;;
20986;SDS011;10652;50.306;8.570;2024-03-02T05:59:10;19.15;;;13.52;;
20986;SDS011;10652;50.306;8.570;2024-03-02T06:03:15;24.88;;;16.65;;
20986;SDS011;10652;50.306;8.570;2024-03-02T06:07:17;23.58;;;17.52;;
20986;SDS011;10652;50.306;8.570;2024-03-02T06:11:19;22.17;;;14.68;;
20986;SDS011;10652;50.306;8.570;2024-03-02T06:15:21;18.63;;;14.68;;
20986;SDS011;10652;50.306;8.570;2024-03-02T06:19:23;17.40;;;12.48;;
20986;SDS011;10652;50.306;8.570;2024-03-02T06:23:25;16.60;;;12.10;;
20986;SDS011;10652;50.306;8.570;2024-03-02T06:27:27;16.50;;;11.90;;
20986;SDS011;10652;50.306;8.570;2024-03-02T06:31:30;15.55;;;11.93;;
20986;SDS011;10652;50.306;8.570;2024-03-02T06:35:32;15.18;;;11.50;;
20986;SDS011;10652;50.306;8.570;2024-03-02T06:39:34;15.80;;;11.80;;
20986;SDS011;10652;50.306;8.570;2024-03-02T06:43:36;15.75;;;11.77;;
20986;SDS011;10652;50.306;8.570;2024-03-02T06:47:40;14.82;;;10.55;;
20986;SDS011;10652;50.306;8.570;2024-03-02T06:51:42;15.77;;;11.38;;
20986;SDS011;10652;50.306;8.570;2024-03-02T06:55:44;13.93;;;10.07;;
20986;SDS011;10652;50.306;8.570;2024-03-02T06:59:46;16.75;;;10.23;;
20986;SDS011;10652;50.306;8.570;2024-03-02T07:03:52;17.67;;;10.50;;
20986;SDS011;10652;50.306;8.570;2024-03-02T07:07:54;13.98;;;10.70;;
20986;SDS011;10652;50.306;8.570;2024-03-02T07:11:56;14.73;;;11.07;;
20986;SDS011;10652;50.306;8.570;2024-03-02T07:15:58;18.77;;;12.38;;
20986;SDS011;10652;50.306;8.570;2024-03-02T07:20:12;17.02;;;12.35;;
20986;SDS011;10652;50.306;8.570;2024-03-02T07:24:14;15.40;;;11.95;;
20986;SDS011;10652;50.306;8.570;2024-03-02T07:28:18;16.98;;;12.45;;
20986;SDS011;10652;50.306;8.570;2024-03-02T07:32:20;19.20;;;13.38;;
20986;SDS011;10652;50.306;8.570;2024-03-02T07:36:22;16.13;;;11.60;;
20986;SDS011;10652;50.306;8.570;2024-03-02T07:40:24;15.48;;;12.27;;
20986;SDS011;10652;50.306;8.570;2024-03-02T07:44:27;15.10;;;12.27;;
20986;SDS011;10652;50.306;8.570;2024-03-02T07:48:29;23.58;;;15.85;;
20986;SDS011;10652;50.306;8.570;2024-03-02T07:52:32;30.38;;;20.42;;
20986;SDS011;10652;50.306;8.570;2024-03-02T07:56:35;18.13;;;13.80;;
20986;SDS011;10652;50.306;8.570;2024-03-02T08:00:38;15.05;;;11.75;;
20986;SDS011;10652;50.306;8.570;2024-03-02T08:04:42;14.95;;;11.45;;
20986;SDS011;10652;50.306;8.570;2024-03-02T08:08:44;15.40;;;11.32;;
20986;SDS011;10652;50.306;8.570;2024-03-02T08:12:46;18.27;;;12.68;;
20986;SDS011;10652;50.306;8.570;2024-03-02T08:16:48;14.10;;;10.63;;
20986;SDS011;10652;50.306;8.570;2024-03-02T08:20:51;13.18;;;9.82;;
20986;SDS011;10652;50.306;8.570;2024-03-02T08:24:53;12.60;;;9.05;;
20986;SDS011;10652;50.306;8.570;2024-03-02T08:28:56;15.55;;;10.73;;
20986;SDS011;10652;50.306;8.570;2024-03-02T08:32:59;12.82;;;9.95;;
20986;SDS011;10652;50.306;8.570;2024-03-02T08:37:02;12.02;;;8.90;;
20986;SDS011;10652;50.306;8.570;2024-03-02T08:41:04;11.35;;;9.07;;
20986;SDS011;10652;50.306;8.570;2024-03-02T08:45:07;11.68;;;8.48;;
20986;SDS011;10652;50.306;8.570;2024-03-02T08:49:09;9.30;;;7.75;;
20986;SDS011;10652;50.306;8.570;2024-03-02T08:53:12;13.30;;;7.95;;
20986;SDS011;10652;50.306;8.570;2024-03-02T08:57:14;10.88;;;7.32;;
20986;SDS011;10652;50.306;8.570;2024-03-02T09:01:16;9.73;;;7.00;;
20986;SDS011;10652;50.306;8.570;2024-03-02T09:05:19;8.70;;;6.15;;
20986;SDS011;10652;50.306;8.570;2024-03-02T09:09:21;7.88;;;6.60;;
20986;SDS011;10652;50.306;8.570;2024-03-02T09:13:24;7.25;;;5.95;;
20986;SDS011;10652;50.306;8.570;2024-03-02T09:17:26;7.82;;;5.72;;
20986;SDS011;10652;50.306;8.570;2024-03-02T09:21:28;8.13;;;6.18;;
20986;SDS011;10652;50.306;8.570;2024-03-02T09:25:31;8.27;;;6.00;;
20986;SDS011;10652;50.306;8.570;2024-03-02T09:29:34;6.30;;;5.30;;
20986;SDS011;10652;50.306;8.570;2024-03-02T09:33:36;7.40;;;5.30;;
20986;SDS011;10652;50.306;8.570;2024-03-02T09:37:38;6.28;;;5.07;;
20986;SDS011;10652;50.306;8.570;2024-03-02T09:41:40;6.85;;;4.80;;
20986;SDS011;10652;50.306;8.570;2024-03-02T09:45:42;7.32;;;5.55;;
20986;SDS011;10652;50.306;8.570;2024-03-02T09:49:47;6.28;;;4.88;;
20986;SDS011;10652;50.306;8.570;2024-03-02T09:53:49;6.35;;;5.15;;
20986;SDS011;10652;50.306;8.570;2024-03-02T09:57:52;8.18;;;5.35;;
20986;SDS011;10652;50.306;8.570;2024-03-02T10:02:00;8.43;;;5.55;;
20986;SDS011;10652;50.306;8.570;2024-03-02T10:06:23;7.88;;;5.20;;
20986;SDS011;10652;50.306;8.570;2024-03-02T10:10:33;7.55;;;4.60;;
20986;SDS011;10652;50.306;8.570;2024-03-02T10:14:38;6.75;;;5.00;;
20986;SDS011;10652;50.306;8.570;2024-03-02T10:18:41;6.40;;;5.10;;
20986;SDS011;10652;50.306;8.570;2024-03-02T10:22:43;7.97;;;4.95;;
20986;SDS011;10652;50.306;8.570;2024-03-02T10:26:45;6.03;;;5.07;;
20986;SDS011;10652;50.306;8.570;2024-03-02T10:30:47;9.00;;;5.15;;
20986;SDS011;10652;50.306;8.570;2024-03-02T10:34:51;5.60;;;4.97;;
20986;SDS011;10652;50.306;8.570;2024-03-02T10:38:53;6.32;;;4.85;;
20986;SDS011;10652;50.306;8.570;2024-03-02T10:42:58;6.47;;;4.75;;
20986;SDS011;10652;50.306;8.570;2024-03-02T10:47:04;6.38;;;4.65;;
20986;SDS011;10652;50.306;8.570;2024-03-02T10:51:06;5.47;;;4.22;;
20986;SDS011;10652;50.306;8.570;2024-03-02T10:55:09;5.38;;;4.00;;
20986;SDS011;10652;50.306;8.570;2024-03-02T11:03:33;5.85;;;3.83;;
20986;SDS011;10652;50.306;8.570;2024-03-02T11:07:38;3.75;;;3.17;;
20986;SDS011;10652;50.306;8.570;2024-03-02T11:11:43;4.40;;;3.28;;
20986;SDS011;10652;50.306;8.570;2024-03-02T11:15:45;4.60;;;3.70;;
20986;SDS011;10652;50.306;8.570;2024-03-02T11:19:48;5.07;;;3.90;;
20986;SDS011;10652;50.306;8.570;2024-03-02T11:23:51;3.90;;;2.85;;
20986;SDS011;10652;50.306;8.570;2024-03-02T11:31:59;4.53;;;3.17;;
20986;SDS011;10652;50.306;8.570;2024-03-02T11:36:02;4.43;;;3.08;;
20986;SDS011;10652;50.306;8.570;2024-03-02T11:40:05;4.47;;;3.67;;
20986;SDS011;10652;50.306;8.570;2024-03-02T11:44:12;5.57;;;3.47;;
20986;SDS011;10652;50.306;8.570;2024-03-02T11:48:15;5.13;;;3.10;;
20986;SDS011;10652;50.306;8.570;2024-03-02T11:52:18;4.78;;;2.90;;
20986;SDS011;10652;50.306;8.570;2024-03-02T11:56:20;5.13;;;3.10;;
20986;SDS011;10652;50.306;8.570;2024-03-02T12:00:22;3.67;;;2.85;;
20986;SDS011;10652;50.306;8.570;2024-03-02T12:04:25;3.70;;;2.72;;
20986;SDS011;10652;50.306;8.570;2024-03-02T12:08:28;3.53;;;2.75;;
20986;SDS011;10652;50.306;8.570;2024-03-02T12:12:30;4.63;;;3.55;;
20986;SDS011;10652;50.306;8.570;2024-03-02T12:16:33;4.93;;;3.80;;
20986;SDS011;10652;50.306;8.570;2024-03-02T12:20:35;5.30;;;3.45;;
20986;SDS011;10652;50.306;8.570;2024-03-02T12:24:37;4.50;;;2.70;;
20986;SDS011;10652;50.306;8.570;2024-03-02T12:28:39;3.55;;;2.10;;
20986;SDS011;10652;50.306;8.570;2024-03-02T12:32:41;3.50;;;2.13;;
20986;SDS011;10652;50.306;8.570;2024-03-02T12:36:43;3.33;;;1.92;;
20986;SDS011;10652;50.306;8.570;2024-03-02T12:40:49;2.65;;;1.70;;
20986;SDS011;10652;50.306;8.570;2024-03-02T12:44:52;2.55;;;1.63;;
20986;SDS011;10652;50.306;8.570;2024-03-02T12:48:57;2.40;;;1.80;;
20986;SDS011;10652;50.306;8.570;2024-03-02T12:52:59;5.28;;;3.33;;
20986;SDS011;10652;50.306;8.570;2024-03-02T12:57:02;4.18;;;2.80;;
20986;SDS011;10652;50.306;8.570;2024-03-02T13:01:07;3.72;;;2.83;;
20986;SDS011;10652;50.306;8.570;2024-03-02T13:05:12;4.40;;;2.92;;
20986;SDS011;10652;50.306;8.570;2024-03-02T13:09:15;3.80;;;2.80;;
20986;SDS011;10652;50.306;8.570;2024-03-02T13:13:18;4.85;;;3.35;;
20986;SDS011;10652;50.306;8.570;2024-03-02T13:17:20;4.10;;;3.28;;
20986;SDS011;10652;50.306;8.570;2024-03-02T13:21:23;5.10;;;3.40;;
20986;SDS011;10652;50.306;8.570;2024-03-02T13:25:25;3.90;;;3.30;;
20986;SDS011;10652;50.306;8.570;2024-03-02T13:29:27;6.45;;;3.92;;
20986;SDS011;10652;50.306;8.570;2024-03-02T13:33:29;4.15;;;3.38;;
20986;SDS011;10652;50.306;8.570;2024-03-02T13:37:33;4.10;;;3.05;;
20986;SDS011;10652;50.306;8.570;2024-03-02T13:41:35;3.97;;;3.00;;
20986;SDS011;10652;50.306;8.570;2024-03-02T13:45:38;4.85;;;3.22;;
20986;SDS011;10652;50.306;8.570;2024-03-02T13:49:41;3.63;;;3.00;;
20986;SDS011;10652;50.306;8.570;2024-03-02T13:53:47;3.67;;;3.10;;
20986;SDS011;10652;50.306;8.570;2024-03-02T13:57:49;6.18;;;3.50;;
20986;SDS011;10652;50.306;8.570;2024-03-02T14:01:52;3.95;;;3.33;;
20986;SDS011;10652;50.306;8.570;2024-03-02T14:05:54;4.93;;;3.72;;
20986;SDS011;10652;50.306;8.570;2024-03-02T14:09:57;5.85;;;3.70;;
20986;SDS011;10652;50.306;8.570;2024-03-02T14:14:00;5.25;;;3.50;;
20986;SDS011;10652;50.306;8.570;2024-03-02T14:18:02;3.42;;;2.90;;
20986;SDS011;10652;50.306;8.570;2024-03-02T14:22:04;3.50;;;2.70;;
20986;SDS011;10652;50.306;8.570;2024-03-02T14:26:07;5.18;;;2.88;;
20986;SDS011;10652;50.306;8.570;2024-03-02T14:30:10;2.70;;;2.38;;
20986;SDS011;10652;50.306;8.570;2024-03-02T14:34:13;3.38;;;2.72;;
20986;SDS011;10652;50.306;8.570;2024-03-02T14:38:15;4.07;;;2.53;;
20986;SDS011;10652;50.306;8.570;2024-03-02T14:42:17;4.15;;;2.80;;
20986;SDS011;10652;50.306;8.570;2024-03-02T14:46:19;4.20;;;2.78;;
20986;SDS011;10652;50.306;8.570;2024-03-02T14:50:22;3.45;;;2.75;;
20986;SDS011;10652;50.306;8.570;2024-03-02T14:54:24;3.72;;;3.00;;
20986;SDS011;10652;50.306;8.570;2024-03-02T14:58:26;2.97;;;2.25;;
20986;SDS011;10652;50.306;8.570;2024-03-02T15:02:28;4.03;;;2.67;;
20986;SDS011;10652;50.306;8.570;2024-03-02T15:06:30;2.45;;;2.00;;
20986;SDS011;10652;50.306;8.570;2024-03-02T15:10:33;4.07;;;3.58;;
20986;SDS011;10652;50.306;8.570;2024-03-02T15:14:36;2.00;;;1.80;;
20986;SDS011;10652;50.306;8.570;2024-03-02T15:18:40;3.03;;;1.83;;
20986;SDS011;10652;50.306;8.570;2024-03-02T15:22:42;2.45;;;1.60;;
20986;SDS011;10652;50.306;8.570;2024-03-02T15:26:44;2.22;;;1.95;;
20986;SDS011;10652;50.306;8.570;2024-03-02T15:30:46;2.28;;;1.70;;
20986;SDS011;10652;50.306;8.570;2024-03-02T15:34:48;2.22;;;1.55;;
20986;SDS011;10652;50.306;8.570;2024-03-02T15:38:51;3.33;;;2.58;;
20986;SDS011;10652;50.306;8.570;2024-03-02T15:42:53;2.53;;;2.15;;
20986;SDS011;10652;50.306;8.570;2024-03-02T15:46:55;3.15;;;2.67;;
20986;SDS011;10652;50.306;8.570;2024-03-02T15:50:57;5.63;;;3.25;;
20986;SDS011;10652;50.306;8.570;2024-03-02T15:55:02;2.80;;;2.47;;
20986;SDS011;10652;50.306;8.570;2024-03-02T15:59:07;3.35;;;1.92;;
20986;SDS011;10652;50.306;8.570;2024-03-02T16:03:10;1.92;;;1.40;;
20986;SDS011;10652;50.306;8.570;2024-03-02T16:07:12;3.47;;;1.70;;
20986;SDS011;10652;50.306;8.570;2024-03-02T16:11:14;2.85;;;1.30;;
20986;SDS011;10652;50.306;8.570;2024-03-02T16:15:17;2.58;;;1.60;;
20986;SDS011;10652;50.306;8.570;2024-03-02T16:19:19;3.03;;;1.98;;
20986;SDS011;10652;50.306;8.570;2024-03-02T16:23:33;3.80;;;1.65;;
20986;SDS011;10652;50.306;8.570;2024-03-02T16:27:35;1.70;;;1.50;;
20986;SDS011;10652;50.306;8.570;2024-03-02T16:31:37;2.97;;;1.40;;
20986;SDS011;10652;50.306;8.570;2024-03-02T16:35:39;2.53;;;1.30;;
20986;SDS011;10652;50.306;8.570;2024-03-02T16:39:41;2.83;;;1.60;;
20986;SDS011;10652;50.306;8.570;2024-03-02T16:43:44;3.85;;;2.20;;
20986;SDS011;10652;50.306;8.570;2024-03-02T16:47:47;3.13;;;2.25;;
20986;SDS011;10652;50.306;8.570;2024-03-02T16:51:50;7.90;;;4.65;;
20986;SDS011;10652;50.306;8.570;2024-03-02T16:55:52;5.60;;;4.00;;
20986;SDS011;10652;50.306;8.570;2024-03-02T16:59:54;9.85;;;6.60;;
20986;SDS011;10652;50.306;8.570;2024-03-02T17:03:56;7.07;;;5.10;;
20986;SDS011;10652;50.306;8.570;2024-03-02T17:07:58;3.95;;;2.85;;
20986;SDS011;10652;50.306;8.570;2024-03-02T17:12:00;4.43;;;2.60;;
20986;SDS011;10652;50.306;8.570;2024-03-02T17:16:03;4.25;;;2.63;;
20986;SDS011;10652;50.306;8.570;2024-03-02T17:20:06;2.53;;;1.85;;
20986;SDS011;10652;50.306;8.570;2024-03-02T17:24:11;2.35;;;1.60;;
20986;SDS011;10652;50.306;8.570;2024-03-02T17:28:19;2.05;;;1.80;;
20986;SDS011;10652;50.306;8.570;2024-03-02T17:32:28;3.60;;;2.22;;
20986;SDS011;10652;50.306;8.570;2024-03-02T17:36:30;4.00;;;2.80;;
20986;SDS011;10652;50.306;8.570;2024-03-02T17:40:32;4.82;;;3.25;;
20986;SDS011;10652;50.306;8.570;2024-03-02T17:44:34;3.47;;;3.17;;
20986;SDS011;10652;50.306;8.570;2024-03-02T17:48:36;4.25;;;3.20;;
20986;SDS011;10652;50.306;8.570;2024-03-02T17:52:38;3.80;;;3.00;;
20986;SDS011;10652;50.306;8.570;2024-03-02T17:56:40;4.20;;;2.80;;
20986;SDS011;10652;50.306;8.570;2024-03-02T18:00:42;4.05;;;3.10;;
20986;SDS011;10652;50.306;8.570;2024-03-02T18:04:45;5.15;;;3.15;;
20986;SDS011;10652;50.306;8.570;2024-03-02T18:08:47;12.73;;;7.32;;
20986;SDS011;10652;50.306;8.570;2024-03-02T18:12:52;5.60;;;4.32;;
20986;SDS011;10652;50.306;8.570;2024-03-02T18:16:55;4.15;;;3.53;;
20986;SDS011;10652;50.306;8.570;2024-03-02T18:20:57;7.25;;;3.95;;
20986;SDS011;10652;50.306;8.570;2024-03-02T18:24:59;4.38;;;3.30;;
20986;SDS011;10652;50.306;8.570;2024-03-02T18:29:01;4.25;;;3.65;;
20986;SDS011;10652;50.306;8.570;2024-03-02T18:33:04;4.25;;;3.10;;
20986;SDS011;10652;50.306;8.570;2024-03-02T18:37:07;4.68;;;3.28;;
20986;SDS011;10652;50.306;8.570;2024-03-02T18:41:09;3.80;;;3.10;;
20986;SDS011;10652;50.306;8.570;2024-03-02T18:45:11;5.18;;;3.30;;
20986;SDS011;10652;50.306;8.570;2024-03-02T18:49:14;4.80;;;3.30;;
20986;SDS011;10652;50.306;8.570;2024-03-02T18:53:16;6.03;;;4.30;;
20986;SDS011;10652;50.306;8.570;2024-03-02T18:57:18;6.80;;;4.35;;
20986;SDS011;10652;50.306;8.570;2024-03-02T19:01:20;5.13;;;3.95;;
20986;SDS011;10652;50.306;8.570;2024-03-02T19:05:22;4.32;;;3.20;;
20986;SDS011;10652;50.306;8.570;2024-03-02T19:09:24;6.93;;;4.40;;
20986;SDS011;10652;50.306;8.570;2024-03-02T19:13:27;4.60;;;3.85;;
20986;SDS011;10652;50.306;8.570;2024-03-02T19:17:29;4.07;;;3.55;;
20986;SDS011;10652;50.306;8.570;2024-03-02T19:21:31;5.43;;;4.38;;
20986;SDS011;10652;50.306;8.570;2024-03-02T19:25:34;5.07;;;4.20;;
20986;SDS011;10652;50.306;8.570;2024-03-02T19:29:36;5.15;;;4.38;;
20986;SDS011;10652;50.306;8.570;2024-03-02T19:33:38;5.35;;;4.10;;
20986;SDS011;10652;50.306;8.570;2024-03-02T19:37:40;5.32;;;4.47;;
20986;SDS011;10652;50.306;8.570;2024-03-02T19:41:43;8.48;;;6.45;;
20986;SDS011;10652;50.306;8.570;2024-03-02T19:45:45;10.48;;;7.18;;
20986;SDS011;10652;50.306;8.570;2024-03-02T19:49:47;8.98;;;7.20;;
20986;SDS011;10652;50.306;8.570;2024-03-02T19:53:50;9.45;;;6.15;;
20986;SDS011;10652;50.306;8.570;2024-03-02T19:57:52;9.02;;;5.25;;
20986;SDS011;10652;50.306;8.570;2024-03-02T20:01:54;7.25;;;5.65;;
20986;SDS011;10652;50.306;8.570;2024-03-02T20:05:56;6.78;;;5.78;;
20986;SDS011;10652;50.306;8.570;2024-03-02T20:09:58;6.95;;;6.00;;
20986;SDS011;10652;50.306;8.570;2024-03-02T20:14:01;7.78;;;6.20;;
20986;SDS011;10652;50.306;8.570;2024-03-02T20:18:03;6.88;;;5.53;;
20986;SDS011;10652;50.306;8.570;2024-03-02T20:22:06;9.10;;;6.18;;
20986;SDS011;10652;50.306;8.570;2024-03-02T20:26:09;8.45;;;6.70;;
20986;SDS011;10652;50.306;8.570;2024-03-02T20:30:11;8.65;;;6.60;;
20986;SDS011;10652;50.306;8.570;2024-03-02T20:34:14;11.00;;;8.32;;
20986;SDS011;10652;50.306;8.570;2024-03-02T20:38:18;9.55;;;6.68;;
20986;SDS011;10652;50.306;8.570;2024-03-02T20:42:21;9.13;;;6.20;;
20986;SDS011;10652;50.306;8.570;2024-03-02T20:46:23;10.38;;;6.20;;
20986;SDS011;10652;50.306;8.570;2024-03-02T20:50:25;9.77;;;6.88;;
20986;SDS011;10652;50.306;8.570;2024-03-02T20:54:27;10.30;;;7.20;;
20986;SDS011;10652;50.306;8.570;2024-03-02T20:58:30;9.60;;;7.05;;
20986;SDS011;10652;50.306;8.570;2024-03-02T21:02:32;9.98;;;7.00;;
20986;SDS011;10652;50.306;8.570;2024-03-02T21:06:36;9.02;;;6.57;;
20986;SDS011;10652;50.306;8.570;2024-03-02T21:10:38;9.75;;;7.10;;
20986;SDS011;10652;50.306;8.570;2024-03-02T21:14:40;11.02;;;8.00;;
20986;SDS011;10652;50.306;8.570;2024-03-02T21:18:42;14.90;;;8.95;;
20986;SDS011;10652;50.306;8.570;2024-03-02T21:22:45;11.35;;;9.38;;
20986;SDS011;10652;50.306;8.570;2024-03-02T21:26:49;11.50;;;8.60;;
20986;SDS011;10652;50.306;8.570;2024-03-02T21:30:51;10.02;;;7.47;;
20986;SDS011;10652;50.306;8.570;2024-03-02T21:34:53;12.10;;;8.82;;
20986;SDS011;10652;50.306;8.570;2024-03-02T21:38:55;10.95;;;8.60;;
20986;SDS011;10652;50.306;8.570;2024-03-02T21:42:58;11.60;;;7.88;;
20986;SDS011;10652;50.306;8.570;2024-03-02T21:47:00;9.98;;;8.10;;
20986;SDS011;10652;50.306;8.570;2024-03-02T21:51:06;10.80;;;7.93;;
20986;SDS011;10652;50.306;8.570;2024-03-02T21:55:09;10.50;;;7.70;;
20986;SDS011;10652;50.306;8.570;2024-03-02T21:59:11;9.32;;;7.53;;
20986;SDS011;10652;50.306;8.570;2024-03-02T22:03:14;9.73;;;7.15;;
20986;SDS011;10652;50.306;8.570;2024-03-02T22:07:16;8.93;;;6.47;;
20986;SDS011;10652;50.306;8.570;2024-03-02T22:11:18;10.85;;;7.18;;
20986;SDS011;10652;50.306;8.570;2024-03-02T22:15:20;12.38;;;7.70;;
20986;SDS011;10652;50.306;8.570;2024-03-02T22:19:23;11.70;;;7.05;;
20986;SDS011;10652;50.306;8.570;2024-03-02T22:23:25;9.10;;;7.10;;
20986;SDS011;10652;50.306;8.570;2024-03-02T22:27:27;10.65;;;7.47;;
20986;SDS011;10652;50.306;8.570;2024-03-02T22:31:29;12.10;;;8.35;;
20986;SDS011;10652;50.306;8.570;2024-03-02T22:35:32;12.05;;;7.90;;
20986;SDS011;10652;50.306;8.570;2024-03-02T22:39:34;10.98;;;7.80;;
20986;SDS011;10652;50.306;8.570;2024-03-02T22:43:36;11.43;;;8.25;;
20986;SDS011;10652;50.306;8.570;2024-03-02T22:47:38;11.30;;;8.07;;
20986;SDS011;10652;50.306;8.570;2024-03-02T22:51:40;10.23;;;6.88;;
20986;SDS011;10652;50.306;8.570;2024-03-02T22:55:42;9.60;;;7.03;;
20986;SDS011;10652;50.306;8.570;2024-03-02T22:59:48;13.07;;;8.80;;
20986;SDS011;10652;50.306;8.570;2024-03-02T23:03:53;11.63;;;7.75;;
20986;SDS011;10652;50.306;8.570;2024-03-02T23:07:55;13.43;;;9.25;;
20986;SDS011;10652;50.306;8.570;2024-03-02T23:11:58;12.27;;;8.02;;
20986;SDS011;10652;50.306;8.570;2024-03-02T23:16:00;12.07;;;8.50;;
20986;SDS011;10652;50.306;8.570;2024-03-02T23:20:02;14.60;;;8.73;;
20986;SDS011;10652;50.306;8.570;2024-03-02T23:24:04;12.63;;;8.63;;
20986;SDS011;10652;50.306;8.570;2024-03-02T23:28:06;13.93;;;8.68;;
20986;SDS011;10652;50.306;8.570;2024-03-02T23:32:09;15.15;;;9.23;;
20986;SDS011;10652;50.306;8.570;2024-03-02T23:36:11;14.38;;;9.68;;
20986;SDS011;10652;50.306;8.570;2024-03-02T23:40:13;14.68;;;9.98;;
20986;SDS011;10652;50.306;8.570;2024-03-02T23:44:18;14.98;;;9.50;;
20986;SDS011;10652;50.306;8.570;2024-03-02T23:48:20;13.38;;;9.82;;
20986;SDS011;10652;50.306;8.570;2024-03-02T23:52:22;15.70;;;9.30;;
20986;SDS011;10652;50.306;8.570;2024-03-02T23:56:24;13.63;;;8.90;;
